Sky High JS41 at Dominica on Apr 8th 2019, runway excursion on landing

Last Update: April 9, 2019 / 15:01:03 GMT/Zulu time

Bookmark this article
Incident Facts

Date of incident
Apr 8, 2019

Classification
Accident

Flight number
SHH-1017

Aircraft Registration
HI1038

ICAO Type Designator
JS41

Airport ICAO Code
TDPD

A Sky High Aviation BAe Jetstream JS-41, registration HI1038 performing flight SHH-1017 from Santo Domingo (Dominican Republic) to Dominica (Dominica), landed on Dominica's Douglas Charles (formerly known as Melville Hall) Airport's runway 27 at about 12:30L (16:30Z) but veered left off the runway, crossed turn off taxiway B leaving the nose gear and debris behind and came to a stop past the taxiway B, the left main gear also collapsed. One passenger received minor injuries (a cut above the eye), all other occupants exited without injuries. The aircraft sustained substantial damage.

Related NOTAMs:
A0499/19 NOTAMN
Q) TTZP/QFALC/IV/NBO/A/000/999/1533N06118W005
A) TDPD B) 1904081630 C) 1904081930
E) AD CLSD.

A0500/19 NOTAMN
Q) TTZP/QFALC/IV/NBO/A/000/999/1533N06118W005
A) TDPD B) 1904081931 C) 1904091001
E) AD CLSD

A0502/19 NOTAMR A0500/19
Q) TTZP/QFALC/IV/NBO/A/000/999/1520N06124W005
A) TDPD B) 1904082215 C) 1904091700
E) AD CLSD.

Metars:
TDPD 081800Z 11011KT 9999 BKN020 28/20 Q1017=
TDPD 081700Z 11011KT 9999 SCT017 28/19 Q1017=
TDPD 081600Z 11011KT 9999 BKN017 29/20 Q1018=
TDPD 081500Z 11008KT 9999 SCT017 27/19 Q1018=
TDPD 081400Z 11009KT 9999 FEW019 28/19 Q1018=
TDPD 081300Z 13008KT 9999 SCT018 27/20 Q1018=
Incident Facts

Date of incident
Apr 8, 2019

Classification
Accident

Flight number
SHH-1017

Aircraft Registration
HI1038

ICAO Type Designator
JS41

Airport ICAO Code
TDPD

This article is published under license from Avherald.com. © of text by Avherald.com.
Article source

You can read 4 more free articles without a subscription.

Subscribe now and continue reading without any limits!

Are you a subscriber?
Login
Subscribe

Read unlimited articles and receive our daily update briefing. Gain better insights into what is happening in commercial aviation safety.

Free newsletter

Want to know more and stay ahead? Get our free weekly newsletter and join 4937 existing subscribers.

By subscribing, you accept our terms and conditions and confirm that you've read our privacy policy.

Send tip

Support AeroInside by sending a small tip amount.

Newest articles

Subscribe today

Are you researching aviation incidents? Get access to AeroInside Insights, unlimited read access and receive the daily newsletter.

Pick your plan and subscribe

Partner

Blockaviation logo

A new way to document and demonstrate airworthiness compliance and aircraft value. Find out more.

Virtual Speech logo

ELITE Simulation Solutions is a leading global provider of Flight Simulation Training Devices, IFR training software as well as flight controls and related services. Find out more.

Get updates

Never miss an article from AeroInside. Subscribe to our free weekly newsletter and join 4937 existing subscribers.

By subscribing, you accept our terms and conditions and that you've read our privacy policy.

AeroInside Blog
Popular aircraft
Airbus A320
Boeing 737-800
Boeing 737-800 MAX
Popular airlines
American Airlines
United
Delta
Air Canada
Lufthansa
British Airways